Time;durP1;ratioP1;P1;durP2;ratioP2;P2;SDS_P1;SDS_P2;PMS_P1;PMS_P2;Temp;Humidity;BMP_temperature;BMP_pressure;BME280_temperature;BME280_humidity;BME280_pressure;Samples;Min_cycle;Max_cycle;Signal;HPM_P1;HPM_P2
2022/01/24 00:00:15;;;;;;;17.67;10.10;;;2.30;99.90;;;;;;5082698;28;20750;-62
2022/01/24 00:02:43;;;;;;;17.98;10.75;;;2.20;99.90;;;;;;5081928;28;20872;-62
2022/01/24 00:05:10;;;;;;;16.60;9.88;;;3.90;99.90;;;;;;5076974;28;20519;-62
2022/01/24 00:07:35;;;;;;;18.15;9.77;;;2.20;99.90;;;;;;5082182;28;20443;-62
2022/01/24 00:10:06;;;;;;;17.63;9.55;;;2.10;99.90;;;;;;5082071;28;20485;-62
2022/01/24 00:18:27;;;;;;;21.48;11.65;;;1.80;99.90;;;;;;5086346;28;20473;-63
2022/01/24 00:29:04;;;;;;;18.48;9.60;;;1.90;99.90;;;;;;5078831;28;20455;-62
2022/01/24 00:31:30;;;;;;;18.05;9.60;;;1.90;99.90;;;;;;5081563;28;20461;-62
2022/01/24 00:33:56;;;;;;;16.63;9.43;;;1.90;99.90;;;;;;5086587;28;20397;-62
2022/01/24 00:36:21;;;;;;;16.13;8.80;;;2.00;99.90;;;;;;5087924;28;20824;-62
2022/01/24 00:38:47;;;;;;;18.27;9.70;;;2.00;99.90;;;;;;5088858;28;20426;-62
2022/01/24 00:41:16;;;;;;;19.20;9.67;;;2.00;99.90;;;;;;5088902;28;20386;-62
2022/01/24 00:46:34;;;;;;;23.55;12.07;;;2.10;99.90;;;;;;5088831;28;20424;-62
2022/01/24 00:54:47;;;;;;;19.97;10.87;;;2.00;99.90;;;;;;5089349;28;20370;-61
2022/01/24 00:57:13;;;;;;;21.10;11.57;;;1.90;99.90;;;;;;5089221;28;20448;-62
2022/01/24 00:59:39;;;;;;;19.55;9.50;;;1.90;99.90;;;;;;5088798;28;20872;-61
2022/01/24 01:02:06;;;;;;;21.40;9.50;;;1.80;99.90;;;;;;5090800;28;21218;-61
2022/01/24 01:04:51;;;;;;;18.88;10.02;;;2.60;99.90;;;;;;5092837;28;20385;-62
2022/01/24 01:07:29;;;;;;;18.20;9.88;;;1.70;99.90;;;;;;5092391;28;20406;-61
2022/01/24 01:21:07;;;;;;;19.87;9.80;;;3.10;99.90;;;;;;5072228;28;20384;-62
2022/01/24 01:23:35;;;;;;;19.42;9.90;;;1.70;99.90;;;;;;5072677;28;20477;-61
2022/01/24 01:26:05;;;;;;;17.95;9.45;;;1.70;99.90;;;;;;5071342;28;20395;-61
2022/01/24 01:28:32;;;;;;;17.73;9.30;;;1.80;99.90;;;;;;5071988;28;20783;-61
2022/01/24 01:31:03;;;;;;;19.07;10.57;;;1.90;99.90;;;;;;5103859;28;20383;-62
2022/01/24 01:36:38;;;;;;;17.88;9.68;;;1.90;99.90;;;;;;5071949;28;20386;-61
2022/01/24 01:39:33;;;;;;;19.88;9.82;;;1.90;99.90;;;;;;5103876;28;20404;-61
2022/01/24 01:55:40;;;;;;;17.60;9.35;;;2.90;99.90;;;;;;5071514;28;20887;-61
2022/01/24 01:58:12;;;;;;;17.20;9.03;;;2.10;99.90;;;;;;5070781;28;20387;-62
2022/01/24 02:00:51;;;;;;;15.55;8.85;;;2.10;99.90;;;;;;5071514;28;20383;-61
2022/01/24 02:03:17;;;;;;;17.80;9.10;;;2.10;99.90;;;;;;5071395;28;20376;-61
2022/01/24 02:05:43;;;;;;;16.70;9.30;;;3.10;99.90;;;;;;5071558;28;20382;-62
2022/01/24 02:08:09;;;;;;;17.80;9.70;;;2.10;99.90;;;;;;5070701;28;20748;-61
2022/01/24 02:10:37;;;;;;;17.58;9.95;;;3.70;99.90;;;;;;5071206;28;20392;-61
2022/01/24 02:13:03;;;;;;;18.85;10.20;;;2.00;99.90;;;;;;5069055;28;20388;-61
2022/01/24 02:16:26;;;;;;;20.40;9.75;;;2.30;99.90;;;;;;5071367;28;20380;-61
2022/01/24 02:21:28;;;;;;;17.38;8.70;;;1.80;99.90;;;;;;5069186;28;20428;-62
2022/01/24 02:23:58;;;;;;;16.23;9.00;;;3.30;99.90;;;;;;5070715;28;20841;-61
2022/01/24 02:26:24;;;;;;;17.90;8.90;;;3.10;99.90;;;;;;5071082;28;20411;-61
2022/01/24 02:31:41;;;;;;;16.23;8.98;;;2.30;99.90;;;;;;5070923;28;20745;-61
2022/01/24 02:34:25;;;;;;;18.42;8.48;;;2.00;99.90;;;;;;5069913;28;21047;-61
2022/01/24 02:36:52;;;;;;;17.48;8.55;;;3.20;99.90;;;;;;5070415;28;20396;-61
2022/01/24 02:50:25;;;;;;;18.05;8.90;;;1.50;99.90;;;;;;5070283;28;20390;-61
2022/01/24 02:52:51;;;;;;;18.98;9.30;;;1.40;99.90;;;;;;5069368;28;20415;-61
2022/01/24 02:55:16;;;;;;;17.87;9.70;;;2.00;99.90;;;;;;5070567;28;20426;-61
2022/01/24 02:57:42;;;;;;;16.73;8.32;;;1.40;99.90;;;;;;5070394;28;20853;-61
2022/01/24 03:00:08;;;;;;;17.42;8.80;;;1.50;99.90;;;;;;5069208;28;20439;-62
2022/01/24 03:02:34;;;;;;;19.45;9.63;;;1.50;99.90;;;;;;5070240;28;20438;-61
2022/01/24 03:05:00;;;;;;;15.68;8.85;;;1.50;99.90;;;;;;5073977;28;20892;-62
2022/01/24 03:07:25;;;;;;;17.47;9.30;;;2.20;99.90;;;;;;5079577;28;20442;-61
2022/01/24 03:09:54;;;;;;;19.65;9.73;;;1.50;99.90;;;;;;5071699;28;20734;-61
2022/01/24 03:12:40;;;;;;;16.92;9.40;;;2.80;99.90;;;;;;5070233;28;20386;-62
2022/01/24 03:15:06;;;;;;;17.30;9.30;;;2.20;99.90;;;;;;5069378;28;20391;-61
2022/01/24 03:17:32;;;;;;;17.88;9.50;;;1.50;99.90;;;;;;5069703;28;20457;-61
2022/01/24 03:19:57;;;;;;;19.23;9.73;;;1.50;99.90;;;;;;5072817;28;20406;-61
2022/01/24 03:22:23;;;;;;;16.90;8.70;;;1.40;99.90;;;;;;5076542;28;20392;-61
2022/01/24 03:24:49;;;;;;;18.37;9.20;;;1.40;99.90;;;;;;5077129;28;20375;-61
2022/01/24 03:27:15;;;;;;;17.52;8.70;;;1.30;99.90;;;;;;5069751;28;20399;-61
2022/01/24 03:29:41;;;;;;;18.50;9.38;;;1.20;99.90;;;;;;5070078;28;20445;-61
2022/01/24 03:32:07;;;;;;;20.25;10.18;;;2.10;99.90;;;;;;5069536;28;20649;-59
2022/01/24 03:34:33;;;;;;;19.98;10.55;;;1.00;99.90;;;;;;5102470;28;20380;-60
2022/01/24 03:36:59;;;;;;;21.13;10.48;;;1.00;99.90;;;;;;5105995;27;20923;-59
2022/01/24 03:39:24;;;;;;;19.08;9.00;;;1.00;99.90;;;;;;5086405;28;20495;-59
2022/01/24 03:41:50;;;;;;;19.30;9.80;;;1.90;99.90;;;;;;5080427;28;20423;-59
2022/01/24 03:44:18;;;;;;;18.58;9.77;;;1.00;99.90;;;;;;5069483;28;20464;-61
2022/01/24 03:46:59;;;;;;;17.60;8.90;;;2.20;99.90;;;;;;5069138;28;20416;-62
2022/01/24 03:49:45;;;;;;;17.17;9.35;;;1.40;99.90;;;;;;5069802;28;20392;-59
2022/01/24 03:52:18;;;;;;;20.00;10.60;;;1.00;99.90;;;;;;5068876;28;20387;-59
2022/01/24 03:54:45;;;;;;;18.83;9.82;;;1.00;99.90;;;;;;5069371;28;20430;-59
2022/01/24 03:57:12;;;;;;;19.27;10.40;;;1.00;99.90;;;;;;5068925;28;20410;-59
2022/01/24 03:59:38;;;;;;;17.53;9.50;;;1.10;99.90;;;;;;5069457;28;20470;-62
2022/01/24 04:02:04;;;;;;;23.00;10.83;;;1.20;99.90;;;;;;5068903;28;20458;-60
2022/01/24 04:04:30;;;;;;;20.52;10.10;;;1.20;99.90;;;;;;5069313;28;20411;-61
2022/01/24 04:06:56;;;;;;;21.23;10.57;;;1.20;99.90;;;;;;5068710;28;20849;-60
2022/01/24 04:09:22;;;;;;;18.52;9.95;;;1.20;99.90;;;;;;5069407;28;20449;-60
2022/01/24 04:11:52;;;;;;;18.55;10.10;;;1.20;99.90;;;;;;5069513;28;20384;-60
2022/01/24 04:14:41;;;;;;;19.42;10.80;;;1.20;99.90;;;;;;5069260;28;20403;-60
2022/01/24 04:22:28;;;;;;;19.23;10.18;;;1.30;99.90;;;;;;5069474;28;20448;-60
2022/01/24 04:25:02;;;;;;;22.33;11.35;;;1.40;99.90;;;;;;5068700;28;20392;-60
2022/01/24 04:27:29;;;;;;;20.60;10.55;;;2.20;99.90;;;;;;5069411;28;20869;-60
2022/01/24 04:29:56;;;;;;;21.15;9.68;;;1.50;99.90;;;;;;5074057;28;20390;-60
2022/01/24 04:32:22;;;;;;;19.27;10.05;;;2.50;99.90;;;;;;5089324;28;20472;-60
2022/01/24 04:34:48;;;;;;;20.75;10.15;;;2.10;99.90;;;;;;5089375;28;20393;-61
2022/01/24 04:37:15;;;;;;;19.65;10.02;;;1.40;99.90;;;;;;5093154;28;20394;-60
2022/01/24 04:39:42;;;;;;;18.75;9.80;;;1.30;99.90;;;;;;5093382;28;20382;-60
2022/01/24 04:42:17;;;;;;;21.55;11.00;;;1.10;99.90;;;;;;5092881;28;20386;-61
2022/01/24 04:47:33;;;;;;;19.75;10.35;;;0.80;99.90;;;;;;5092542;28;20523;-60
2022/01/24 04:53:42;;;;;;;19.85;9.73;;;0.60;99.90;;;;;;5093075;28;20369;-60
2022/01/24 04:55:39;;;;;;;21.20;10.27;;;0.60;99.90;;;;;;5081897;28;20411;-60
2022/01/24 04:58:04;;;;;;;20.05;10.73;;;0.60;99.90;;;;;;5081021;28;20740;-59
2022/01/24 05:00:30;;;;;;;18.37;9.97;;;0.70;99.90;;;;;;5084777;28;20389;-61
2022/01/24 05:02:56;;;;;;;18.70;10.32;;;0.70;99.90;;;;;;5092508;28;20470;-61
2022/01/24 05:05:22;;;;;;;20.25;9.68;;;0.70;99.90;;;;;;5093020;28;20380;-61
2022/01/24 05:07:50;;;;;;;20.30;10.43;;;0.80;99.90;;;;;;5093031;28;20402;-60
2022/01/24 05:10:23;;;;;;;20.88;10.60;;;0.50;99.90;;;;;;5092615;28;20385;-60
2022/01/24 05:23:37;;;;;;;26.63;11.77;;;0.50;99.90;;;;;;5092381;28;20385;-60
2022/01/24 05:26:05;;;;;;;23.77;12.02;;;1.80;99.90;;;;;;5092031;28;20378;-60
2022/01/24 05:28:32;;;;;;;22.48;10.90;;;0.40;99.90;;;;;;5092425;28;20394;-60
2022/01/24 05:31:01;;;;;;;22.38;11.50;;;0.40;99.90;;;;;;5091156;28;20390;-60
2022/01/24 05:33:28;;;;;;;23.80;10.75;;;0.40;99.90;;;;;;5092170;28;20385;-59
2022/01/24 05:35:54;;;;;;;20.48;11.00;;;0.40;99.90;;;;;;5091642;28;20912;-60
2022/01/24 05:38:22;;;;;;;19.30;10.47;;;0.60;99.90;;;;;;5092201;28;20386;-60
2022/01/24 05:40:48;;;;;;;24.50;11.70;;;0.40;99.90;;;;;;5090675;28;20797;-60
2022/01/24 05:43:14;;;;;;;20.43;11.27;;;0.40;99.90;;;;;;5090990;28;20386;-60
2022/01/24 05:45:41;;;;;;;23.40;12.00;;;0.40;99.90;;;;;;5086082;28;20498;-60
2022/01/24 05:48:07;;;;;;;21.27;11.63;;;0.30;99.90;;;;;;5076367;28;20412;-60
2022/01/24 05:50:33;;;;;;;24.13;12.50;;;0.30;99.90;;;;;;5080115;28;20474;-60
2022/01/24 05:52:59;;;;;;;22.88;12.00;;;0.30;99.90;;;;;;5070893;28;20462;-59
2022/01/24 05:55:25;;;;;;;22.38;11.40;;;0.30;99.90;;;;;;5071365;28;20937;-59
2022/01/24 05:57:53;;;;;;;22.38;12.15;;;0.30;99.90;;;;;;5071488;28;20895;-59
2022/01/24 06:00:20;;;;;;;23.80;12.10;;;0.30;99.90;;;;;;5079181;28;20476;-60
2022/01/24 06:02:46;;;;;;;25.60;12.45;;;0.40;99.90;;;;;;5091050;28;20382;-59
2022/01/24 06:05:11;;;;;;;23.52;11.50;;;0.50;99.90;;;;;;5089525;28;20449;-59
2022/01/24 06:07:37;;;;;;;25.35;12.68;;;0.50;99.90;;;;;;5079814;28;20936;-59
2022/01/24 06:10:04;;;;;;;23.70;12.47;;;1.70;99.90;;;;;;5090267;28;20385;-60
2022/01/24 06:12:30;;;;;;;23.35;12.85;;;0.40;99.90;;;;;;5089995;28;20460;-60
2022/01/24 06:14:56;;;;;;;25.23;13.00;;;0.50;99.90;;;;;;5090118;28;20875;-59
2022/01/24 06:17:21;;;;;;;28.23;12.73;;;1.10;99.90;;;;;;5090582;28;20462;-59
2022/01/24 06:19:47;;;;;;;25.95;13.50;;;1.90;99.90;;;;;;5091044;28;20686;-58
2022/01/24 06:22:13;;;;;;;22.87;11.97;;;0.60;99.90;;;;;;5089104;28;20452;-58
2022/01/24 06:24:39;;;;;;;27.73;14.47;;;0.70;99.90;;;;;;5089596;28;20445;-60
2022/01/24 06:27:05;;;;;;;26.80;13.55;;;0.80;99.90;;;;;;5088655;28;20482;-61
2022/01/24 06:29:31;;;;;;;27.23;14.15;;;0.90;99.90;;;;;;5090538;28;20386;-59
2022/01/24 06:31:56;;;;;;;26.20;13.23;;;1.10;99.90;;;;;;5090273;28;20393;-60
2022/01/24 06:34:22;;;;;;;24.25;13.15;;;1.20;99.90;;;;;;5089911;28;20397;-59
2022/01/24 06:36:48;;;;;;;22.73;12.60;;;1.20;99.90;;;;;;5091144;28;20859;-60
2022/01/24 06:39:15;;;;;;;22.83;12.63;;;1.10;99.90;;;;;;5090423;28;20528;-59
2022/01/24 06:41:43;;;;;;;23.85;12.63;;;2.00;99.90;;;;;;5091273;28;20523;-59
2022/01/24 06:44:09;;;;;;;24.95;12.30;;;1.30;99.90;;;;;;5086374;28;20716;-58
2022/01/24 06:46:35;;;;;;;21.43;12.13;;;1.40;99.90;;;;;;5077384;28;20494;-59
2022/01/24 06:49:00;;;;;;;23.57;12.13;;;1.50;99.90;;;;;;5082564;28;20398;-60
2022/01/24 06:51:26;;;;;;;23.80;12.57;;;1.50;99.90;;;;;;5073048;28;20880;-59
2022/01/24 06:53:53;;;;;;;25.17;13.05;;;1.60;99.90;;;;;;5076178;28;20370;-60
2022/01/24 06:56:19;;;;;;;23.92;12.18;;;1.60;99.90;;;;;;5090832;28;20378;-61
2022/01/24 06:58:44;;;;;;;22.90;11.30;;;1.70;99.90;;;;;;5083656;28;20384;-62
2022/01/24 07:01:13;;;;;;;22.03;12.37;;;1.80;99.90;;;;;;5073154;28;20577;-62
2022/01/24 07:03:38;;;;;;;22.35;12.20;;;1.80;99.90;;;;;;5085690;28;20437;-62
2022/01/24 07:06:04;;;;;;;21.53;12.20;;;2.70;99.90;;;;;;5086087;28;20418;-59
2022/01/24 07:08:30;;;;;;;19.80;11.48;;;3.10;99.90;;;;;;5091295;28;20397;-59
2022/01/24 07:10:55;;;;;;;24.23;12.32;;;2.10;99.90;;;;;;5079919;28;20402;-62
2022/01/24 07:13:21;;;;;;;23.53;12.63;;;2.00;99.90;;;;;;5083047;28;20380;-62
2022/01/24 07:15:55;;;;;;;22.85;12.07;;;2.10;99.90;;;;;;5090658;28;20390;-62
2022/01/24 07:20:57;;;;;;;19.30;10.98;;;3.30;99.90;;;;;;5089953;28;20374;-62
2022/01/24 07:23:24;;;;;;;22.77;12.50;;;2.30;99.90;;;;;;5090767;28;20427;-63
2022/01/24 07:25:49;;;;;;;21.02;11.90;;;2.30;99.90;;;;;;5089199;28;20370;-62
2022/01/24 07:28:16;;;;;;;20.33;11.47;;;2.40;99.90;;;;;;5089276;28;20406;-63
2022/01/24 07:30:42;;;;;;;21.17;13.18;;;3.10;99.90;;;;;;5090193;28;20389;-63
2022/01/24 07:33:07;;;;;;;24.48;14.35;;;2.50;99.90;;;;;;5089433;28;20370;-63
2022/01/24 07:35:33;;;;;;;23.37;13.57;;;2.60;99.90;;;;;;5089653;28;20878;-63
2022/01/24 07:37:59;;;;;;;21.10;12.13;;;2.60;99.90;;;;;;5089476;28;20389;-63
2022/01/24 07:40:26;;;;;;;23.03;12.07;;;2.80;99.90;;;;;;5090204;28;20378;-62
2022/01/24 07:45:37;;;;;;;19.60;11.85;;;2.80;99.90;;;;;;5084441;28;20870;-62
2022/01/24 07:48:04;;;;;;;23.88;13.30;;;3.50;99.90;;;;;;5079141;28;20859;-62
2022/01/24 07:50:29;;;;;;;21.70;12.45;;;2.90;99.90;;;;;;5089853;28;20382;-62
2022/01/24 07:52:55;;;;;;;19.67;11.10;;;3.00;99.90;;;;;;5089119;28;20503;-62
2022/01/24 07:55:22;;;;;;;23.55;12.65;;;3.00;99.90;;;;;;5089970;28;20452;-62
2022/01/24 07:57:48;;;;;;;25.13;12.98;;;3.00;99.90;;;;;;5090073;28;20374;-62
2022/01/24 08:00:14;;;;;;;20.40;12.25;;;3.00;99.90;;;;;;5089094;28;20710;-62
2022/01/24 08:02:41;;;;;;;21.58;12.82;;;3.00;99.90;;;;;;5089831;28;20855;-62
2022/01/24 08:05:09;;;;;;;22.73;12.50;;;3.10;99.90;;;;;;5076787;28;20961;-62
2022/01/24 08:07:35;;;;;;;23.97;14.50;;;3.10;99.90;;;;;;5093634;28;20469;-62
2022/01/24 08:10:01;;;;;;;24.23;13.57;;;3.20;99.90;;;;;;5089203;28;20473;-62
2022/01/24 08:12:27;;;;;;;23.13;12.65;;;3.30;99.90;;;;;;5094727;28;20472;-62
2022/01/24 08:14:53;;;;;;;22.20;11.47;;;3.40;99.90;;;;;;5086138;28;20474;-63
2022/01/24 08:17:19;;;;;;;21.30;12.90;;;3.40;99.90;;;;;;5090362;28;20518;-63
2022/01/24 08:19:45;;;;;;;20.77;12.43;;;3.50;99.90;;;;;;5075710;28;20409;-63
2022/01/24 08:22:12;;;;;;;19.90;12.07;;;3.40;99.90;;;;;;5073976;28;20835;-63
2022/01/24 08:24:38;;;;;;;26.58;15.02;;;3.30;99.90;;;;;;5089868;28;20397;-63
2022/01/24 08:27:04;;;;;;;25.48;13.77;;;3.30;99.90;;;;;;5088956;28;20398;-63
2022/01/24 08:29:30;;;;;;;21.17;11.85;;;3.40;99.90;;;;;;5082677;28;20404;-63
2022/01/24 08:31:55;;;;;;;21.10;11.40;;;3.40;99.90;;;;;;5084858;28;20479;-63
2022/01/24 08:34:21;;;;;;;20.52;13.15;;;4.50;99.90;;;;;;5094474;28;20388;-63
2022/01/24 08:36:47;;;;;;;19.38;11.05;;;3.50;99.90;;;;;;5094006;28;20832;-63
2022/01/24 08:39:13;;;;;;;23.37;13.00;;;3.60;99.90;;;;;;5085443;28;20480;-63
2022/01/24 08:44:34;;;;;;;27.85;15.65;;;3.80;99.90;;;;;;5081273;28;20377;-63
2022/01/24 08:47:00;;;;;;;47.85;26.30;;;4.00;99.90;;;;;;5087645;28;20414;-63
2022/01/24 08:49:26;;;;;;;33.28;18.13;;;4.00;99.90;;;;;;5088380;28;20414;-63
2022/01/24 08:51:52;;;;;;;21.88;13.60;;;4.10;99.90;;;;;;5067096;28;20749;-64
2022/01/24 08:54:18;;;;;;;20.15;11.90;;;4.10;99.90;;;;;;5067147;28;20395;-63
2022/01/24 08:56:45;;;;;;;17.30;11.45;;;4.20;99.90;;;;;;5068842;28;20407;-63
2022/01/24 08:59:12;;;;;;;21.70;12.27;;;4.20;99.90;;;;;;5073478;28;20408;-63
2022/01/24 09:01:38;;;;;;;18.90;12.18;;;4.30;99.90;;;;;;5089303;28;20382;-63
2022/01/24 09:04:04;;;;;;;18.83;11.65;;;4.30;99.90;;;;;;5094284;28;20745;-62
2022/01/24 09:06:30;;;;;;;17.25;10.98;;;4.40;99.90;;;;;;5093819;28;20404;-63
2022/01/24 09:08:59;;;;;;;18.60;11.00;;;4.50;99.90;;;;;;5108049;28;20384;-63
2022/01/24 09:11:31;;;;;;;19.65;10.75;;;4.60;99.90;;;;;;5107483;28;20812;-63
2022/01/24 09:13:58;;;;;;;18.08;10.88;;;4.70;99.90;;;;;;5099040;28;20515;-63
2022/01/24 09:16:24;;;;;;;18.92;11.30;;;4.70;99.90;;;;;;5088955;28;20401;-63
2022/01/24 09:18:52;;;;;;;20.20;11.00;;;4.60;99.90;;;;;;5089188;28;20465;-63
2022/01/24 09:21:18;;;;;;;18.65;11.50;;;4.70;99.90;;;;;;5088160;28;20863;-63
2022/01/24 09:23:44;;;;;;;21.15;11.40;;;5.10;99.90;;;;;;5091809;28;20886;-63
2022/01/24 09:26:10;;;;;;;19.63;11.30;;;5.00;99.90;;;;;;5091784;28;20409;-61
2022/01/24 09:28:35;;;;;;;16.45;9.93;;;5.00;99.90;;;;;;5092142;28;20473;-61
2022/01/24 09:31:01;;;;;;;17.25;10.70;;;5.70;99.90;;;;;;5085994;28;20886;-61
2022/01/24 09:33:27;;;;;;;17.37;10.30;;;6.40;99.90;;;;;;5097199;28;20400;-62
2022/01/24 09:35:58;;;;;;;16.70;10.33;;;6.90;99.90;;;;;;5112086;28;20385;-61
2022/01/24 09:38:26;;;;;;;14.07;8.30;;;7.70;99.90;;;;;;5112457;28;20832;-65
2022/01/24 09:40:52;;;;;;;14.77;8.70;;;9.50;99.90;;;;;;5112516;28;20559;-62
2022/01/24 09:43:19;;;;;;;13.80;8.60;;;;;;;;;;5112229;28;20407;-62
2022/01/24 09:45:45;;;;;;;14.55;8.93;;;;;;;;;;5112713;28;20401;-63
2022/01/24 09:48:12;;;;;;;15.25;9.40;;;;;;;;;;5111397;28;20885;-63
2022/01/24 09:50:38;;;;;;;13.97;11.37;;;;;;;;;;5112541;28;20387;-63
2022/01/24 09:53:04;;;;;;;12.93;8.60;;;;;;;;;;5111387;28;20723;-63
2022/01/24 09:55:30;;;;;;;15.13;9.30;;;15.60;92.40;;;;;;5112573;28;20361;-63
2022/01/24 09:57:56;;;;;;;12.15;8.43;;;15.50;91.10;;;;;;5111618;28;20373;-62
2022/01/24 10:00:24;;;;;;;11.90;8.03;;;15.30;90.40;;;;;;5112524;28;20441;-63
2022/01/24 10:02:51;;;;;;;12.75;7.80;;;15.30;86.20;;;;;;5112420;28;20420;-63
2022/01/24 10:05:19;;;;;;;11.45;7.40;;;14.80;86.10;;;;;;5111681;28;20389;-63
2022/01/24 10:07:52;;;;;;;10.68;7.20;;;14.10;88.50;;;;;;5112166;28;20465;-64
2022/01/24 10:10:30;;;;;;;12.80;7.75;;;14.30;87.60;;;;;;5110184;28;20854;-63
2022/01/24 10:16:25;;;;;;;11.25;7.20;;;13.50;90.20;;;;;;5091171;28;20393;-63
2022/01/24 10:19:15;;;;;;;11.25;6.95;;;13.60;88.40;;;;;;5091641;28;20473;-64
2022/01/24 10:21:48;;;;;;;10.52;6.78;;;13.80;86.20;;;;;;5091467;28;20475;-63
2022/01/24 10:24:26;;;;;;;11.25;7.68;;;14.20;86.60;;;;;;5089150;28;20390;-63
2022/01/24 10:27:16;;;;;;;13.45;7.80;;;14.80;85.20;;;;;;5091373;28;20985;-64
2022/01/24 10:29:44;;;;;;;11.25;6.70;;;15.00;86.20;;;;;;5091705;28;20382;-64
2022/01/24 10:33:04;;;;;;;11.50;8.20;;;14.70;82.20;;;;;;5090075;28;20445;-63
2022/01/24 10:35:43;;;;;;;11.63;8.13;;;14.20;83.60;;;;;;5008633;28;20855;-64
2022/01/24 10:38:21;;;;;;;11.65;7.20;;;14.00;83.40;;;;;;5007867;28;20501;-64
2022/01/24 10:40:52;;;;;;;13.50;7.07;;;14.00;85.60;;;;;;5061035;28;20813;-63
2022/01/24 10:43:25;;;;;;;13.23;7.82;;;14.50;83.20;;;;;;5090246;28;20418;-64
2022/01/24 10:45:53;;;;;;;12.07;7.20;;;15.20;82.80;;;;;;5090901;28;20394;-63
2022/01/24 10:48:29;;;;;;;12.20;6.70;;;15.30;81.10;;;;;;5090263;28;20537;-63
2022/01/24 10:51:22;;;;;;;10.77;7.28;;;14.60;80.50;;;;;;5090317;28;20383;-62
2022/01/24 10:53:56;;;;;;;11.73;7.65;;;13.60;82.40;;;;;;5087466;28;20439;-63
2022/01/24 10:56:43;;;;;;;12.05;7.35;;;13.60;84.80;;;;;;5090103;28;20400;-63
2022/01/24 10:59:11;;;;;;;11.80;6.85;;;13.20;84.10;;;;;;5089970;28;20467;-63
2022/01/24 11:01:42;;;;;;;10.80;6.60;;;13.40;87.10;;;;;;5090697;28;20418;-63
2022/01/24 11:04:10;;;;;;;12.10;5.93;;;14.30;85.80;;;;;;5089730;28;20418;-63
2022/01/24 11:06:39;;;;;;;12.52;6.80;;;14.60;82.40;;;;;;5090707;28;20377;-63
2022/01/24 11:09:10;;;;;;;11.05;6.95;;;14.80;83.20;;;;;;5089554;28;20398;-63
2022/01/24 11:11:36;;;;;;;10.70;6.90;;;15.20;83.10;;;;;;5090578;28;20425;-63
2022/01/24 11:14:02;;;;;;;10.83;6.50;;;15.30;81.40;;;;;;5089661;28;20448;-63
2022/01/24 11:16:28;;;;;;;9.43;5.90;;;15.00;80.80;;;;;;5090591;28;20443;-63
2022/01/24 11:18:54;;;;;;;10.80;6.43;;;14.90;80.30;;;;;;5090502;28;20394;-63
2022/01/24 11:21:20;;;;;;;9.82;5.90;;;14.60;81.00;;;;;;5089945;28;20370;-63
2022/01/24 11:23:47;;;;;;;8.83;5.30;;;14.00;79.10;;;;;;5090205;28;20378;-63
2022/01/24 11:26:13;;;;;;;11.02;5.88;;;13.00;81.40;;;;;;5089432;28;20370;-63
2022/01/24 11:28:39;;;;;;;10.80;6.30;;;13.40;85.90;;;;;;5090195;28;20401;-63
2022/01/24 11:31:16;;;;;;;10.83;5.93;;;13.40;82.90;;;;;;5089351;28;20477;-63
2022/01/24 11:33:47;;;;;;;11.25;6.45;;;12.90;83.20;;;;;;5088497;28;20425;-63
2022/01/24 11:36:13;;;;;;;11.45;5.80;;;12.70;85.50;;;;;;5089216;28;20843;-63
2022/01/24 11:38:43;;;;;;;10.17;5.30;;;12.80;84.10;;;;;;5090120;28;20439;-63
2022/01/24 11:41:24;;;;;;;10.40;5.97;;;12.10;85.80;;;;;;5089077;28;20420;-63
2022/01/24 11:44:35;;;;;;;11.70;6.00;;;11.10;87.70;;;;;;5090075;28;20378;-65
2022/01/24 11:46:56;;;;;;;10.55;5.82;;;10.30;91.00;;;;;;5087615;28;20413;-65
2022/01/24 11:49:27;;;;;;;10.77;5.35;;;9.50;92.40;;;;;;5089316;28;20786;-65
2022/01/24 11:52:04;;;;;;;9.65;5.30;;;9.20;93.10;;;;;;5089684;28;20409;-63
2022/01/24 11:55:06;;;;;;;12.75;5.72;;;9.10;95.00;;;;;;5089852;28;20385;-65
2022/01/24 11:57:50;;;;;;;8.63;4.53;;;9.20;94.70;;;;;;5090075;28;20393;-63
2022/01/24 12:00:29;;;;;;;9.65;5.00;;;8.70;94.40;;;;;;5088938;28;20472;-62
2022/01/24 12:02:57;;;;;;;10.05;4.63;;;8.60;95.60;;;;;;5090077;28;20792;-63
2022/01/24 12:05:27;;;;;;;10.50;5.18;;;8.80;95.80;;;;;;5089386;28;20433;-62
2022/01/24 12:08:00;;;;;;;8.88;4.20;;;9.10;95.60;;;;;;5089570;28;20410;-63
2022/01/24 12:10:40;;;;;;;9.40;4.80;;;9.10;95.70;;;;;;5089675;28;20382;-63
2022/01/24 12:13:13;;;;;;;9.98;4.82;;;9.10;96.00;;;;;;5088486;28;20426;-62
2022/01/24 12:15:39;;;;;;;9.83;5.10;;;8.90;95.70;;;;;;5089291;28;20839;-62
2022/01/24 12:18:09;;;;;;;10.55;5.78;;;9.00;97.00;;;;;;5088510;28;20425;-62
2022/01/24 12:20:35;;;;;;;10.02;5.30;;;9.30;97.00;;;;;;5089380;28;20884;-65
2022/01/24 12:23:30;;;;;;;8.67;4.60;;;9.50;96.10;;;;;;5088679;28;20897;-65
2022/01/24 12:26:02;;;;;;;10.38;5.00;;;9.50;96.40;;;;;;5089327;28;20374;-65
2022/01/24 12:28:31;;;;;;;10.95;5.30;;;9.90;97.30;;;;;;5089046;28;20398;-65
2022/01/24 12:30:59;;;;;;;8.73;4.82;;;10.10;96.80;;;;;;5089454;28;20526;-64
2022/01/24 12:33:55;;;;;;;9.48;4.15;;;10.20;95.70;;;;;;5089243;28;20390;-63
2022/01/24 12:36:50;;;;;;;8.70;4.50;;;10.10;95.60;;;;;;5087285;28;20390;-64
2022/01/24 12:39:52;;;;;;;10.30;4.60;;;10.40;96.50;;;;;;5084272;28;20398;-64
2022/01/24 12:42:32;;;;;;;11.45;4.90;;;10.50;95.60;;;;;;5086165;28;20468;-64
2022/01/24 12:47:43;;;;;;;8.83;4.60;;;10.10;95.30;;;;;;5086704;28;20492;-64
2022/01/24 12:50:10;;;;;;;10.23;4.67;;;10.10;96.00;;;;;;5088068;28;20432;-64
2022/01/24 12:52:37;;;;;;;8.68;4.47;;;10.10;95.80;;;;;;5068593;28;20385;-64
2022/01/24 12:55:04;;;;;;;12.43;4.60;;;10.00;96.20;;;;;;5088262;28;20382;-64
2022/01/24 12:57:32;;;;;;;10.90;4.93;;;9.60;97.10;;;;;;5092058;28;20401;-64
2022/01/24 13:00:01;;;;;;;10.18;4.75;;;9.70;97.80;;;;;;5092464;28;20477;-64
2022/01/24 13:02:32;;;;;;;8.88;4.65;;;9.80;97.80;;;;;;5092419;28;20887;-64
2022/01/24 13:05:14;;;;;;;11.60;4.72;;;9.80;97.20;;;;;;5091049;28;20386;-64
2022/01/24 13:07:47;;;;;;;9.68;4.20;;;9.80;97.00;;;;;;5092267;28;20897;-65
2022/01/24 13:10:17;;;;;;;9.65;4.85;;;10.00;97.30;;;;;;5091843;28;20382;-64
2022/01/24 13:12:43;;;;;;;11.05;4.97;;;10.00;97.60;;;;;;5092345;28;20447;-65
2022/01/24 13:15:24;;;;;;;11.48;5.65;;;10.30;97.20;;;;;;5091887;28;20409;-66
2022/01/24 13:23:27;;;;;;;10.30;4.90;;;10.20;96.50;;;;;;5089979;28;21080;-72
2022/01/24 13:25:55;;;;;;;11.32;4.88;;;10.00;96.80;;;;;;5090049;28;20863;-68
2022/01/24 13:28:21;;;;;;;11.93;4.93;;;9.90;98.00;;;;;;5090460;28;20406;-67
2022/01/24 13:30:51;;;;;;;10.30;5.40;;;10.00;97.10;;;;;;5091287;28;20404;-64
2022/01/24 13:33:22;;;;;;;10.27;4.47;;;10.10;97.10;;;;;;5091306;28;20508;-65
2022/01/24 13:35:54;;;;;;;14.85;6.88;;;10.30;97.10;;;;;;5091661;28;20382;-65
2022/01/24 13:38:25;;;;;;;15.20;7.10;;;10.30;96.90;;;;;;5091311;28;20390;-65
2022/01/24 13:41:08;;;;;;;10.15;5.30;;;10.20;97.20;;;;;;5089167;28;20397;-65
2022/01/24 13:43:41;;;;;;;10.85;6.18;;;10.00;96.90;;;;;;5089454;28;20398;-65
2022/01/24 13:46:18;;;;;;;16.60;7.50;;;10.00;97.70;;;;;;5090487;28;20386;-63
2022/01/24 13:48:46;;;;;;;12.38;6.05;;;10.10;98.10;;;;;;5089934;28;20517;-63
2022/01/24 13:51:18;;;;;;;8.65;4.60;;;10.10;98.40;;;;;;5084611;28;20874;-63
2022/01/24 13:53:53;;;;;;;17.00;5.93;;;9.90;98.40;;;;;;5089180;28;20390;-63
2022/01/24 13:56:35;;;;;;;8.98;5.07;;;9.50;99.30;;;;;;5088070;28;20438;-64
2022/01/24 13:59:27;;;;;;;8.73;4.80;;;9.50;99.90;;;;;;5088143;28;20394;-60
2022/01/24 14:02:02;;;;;;;13.10;5.50;;;9.50;99.90;;;;;;5087076;28;20394;-58
2022/01/24 14:04:54;;;;;;;10.65;5.43;;;9.60;99.90;;;;;;5089932;28;20414;-59
2022/01/24 14:07:21;;;;;;;10.10;5.70;;;9.70;99.70;;;;;;5084699;28;20489;-57
2022/01/24 14:09:53;;;;;;;9.95;5.07;;;9.30;99.50;;;;;;5089499;28;20483;-58
2022/01/24 14:12:33;;;;;;;10.77;5.50;;;9.20;99.90;;;;;;5087367;28;20511;-58
2022/01/24 14:15:12;;;;;;;9.60;5.00;;;9.50;99.90;;;;;;5082174;28;20512;-57
2022/01/24 14:20:07;;;;;;;9.80;5.13;;;9.50;99.90;;;;;;5087600;28;20401;-58
2022/01/24 14:22:53;;;;;;;11.45;4.20;;;9.40;99.90;;;;;;5087346;28;20386;-58
2022/01/24 14:25:29;;;;;;;10.88;4.90;;;9.30;99.90;;;;;;5086444;28;20393;-56
2022/01/24 14:28:13;;;;;;;10.57;4.72;;;9.10;99.90;;;;;;5086763;28;20417;-64
2022/01/24 14:30:45;;;;;;;9.70;5.18;;;9.20;99.90;;;;;;5083502;28;20583;-63
2022/01/24 14:33:16;;;;;;;13.50;5.10;;;9.30;99.90;;;;;;5082662;28;20422;-62
2022/01/24 14:35:59;;;;;;;11.90;5.40;;;9.20;99.90;;;;;;5087962;28;20382;-62
2022/01/24 14:38:42;;;;;;;10.85;6.20;;;9.10;99.90;;;;;;5087711;28;20386;-63
2022/01/24 14:41:15;;;;;;;9.80;5.45;;;9.10;99.90;;;;;;5087198;28;20402;-66
2022/01/24 14:46:30;;;;;;;11.30;5.13;;;8.90;99.90;;;;;;5088379;28;20905;-61
2022/01/24 14:49:06;;;;;;;12.10;5.95;;;9.00;99.90;;;;;;5088316;28;20430;-62
2022/01/24 14:51:43;;;;;;;12.95;6.45;;;9.10;99.90;;;;;;5088148;28;20397;-62